Etusivu
METAR-TAF:

METAR-TAF

Lentoasemat :

Antakya, Turkki

Leveyspiiri: 36-21-46N, Pituuspiiri: 36-16-56E, korkeus merenpinnasta: 1950 m

Tämänhetkinen sää

Tämä raportti tehtiin 1 tunti ja 14 minuuttia sitten, kello 15.50 UTC
Tuuli 14 kn lounaasta
Lämpötila 22°C
Kosteus 57%
Ilmanpaine 1015 hPa
Näkyvyys 10 km tai enemmän
Hajanaisia pilviä 3500 ft:n korkeudessa

METAR: LTDA 291550Z 22014KT 9999 SCT035 22/13 Q1015 NOSIG

Aika: 20:04 (17:04 UTC)

Sääennuste

Tämä raportti tehtiin 3 tuntia ja 24 minuuttia sitten, kello 13.40 UTC
Ennuste voimassa 29. päivästä klo 15 UTC - 29. päivään klo 24 UTC
Tuuli 20 kn lounaasta
Näkyvyys 10 km tai enemmän
Hajanaisia pilviä 3500 ft:n korkeudessa
Ajoittain
29. päivästä klo 15 UTC - 29. päivään klo 18 UTC
Tuuli 20 kn lounaasta puuskistuen 30 kn:hen
Tulossa
29. päivästä klo 17 UTC - 29. päivään klo 20 UTC
Tuuli 10 kn lännestä/lounaasta

TAF: LTDA 291340Z 2915/2924 23020KT 9999 SCT035 TEMPO 2915/2918 23020G30KT BECMG 2917/2920 24010KT

Säähavainnot ja -ennusteet yli 4000 lentoasemalta (METAR- ja TAF-raportit).

Käytössä olevat sääasemat on merkitty karttaan keltaisilla ja punaisilla pisteillä.

Aseta hiiri pisteen päälle nähdäksesi sääaseman nimen.

Klikkaa sitten nähdäksesi säähavainnot ja -ennusteet.

Kartan vaihtaminen: klikkaa mustalla rastilla varustettuja vihreitä pisteitä, niin voit zoomata sisään; viivalla varustettua vihreää pistettä, niin voit zoomata ulos tai vihreitä nuolia, niin pääset viereisille kartoille.


METAR-TAF: